createdAt,value
2018-04-07T00:01:08.264Z,85.40
2018-04-07T00:03:34.552Z,85.24
2018-04-07T00:06:01.550Z,85.34
2018-04-07T00:08:27.869Z,84.72
2018-04-07T00:10:54.145Z,84.49
2018-04-07T00:13:20.418Z,85.11
2018-04-07T00:15:46.780Z,84.55
2018-04-07T00:18:16.809Z,84.73
2018-04-07T00:20:43.087Z,86.04
2018-04-07T00:23:09.595Z,87.63
2018-04-07T00:25:35.956Z,87.14
2018-04-07T00:28:02.228Z,87.69
2018-04-07T00:30:28.512Z,86.45
2018-04-07T00:32:54.836Z,86.62
2018-04-07T00:35:21.133Z,86.01
2018-04-07T00:37:47.529Z,86.05
2018-04-07T00:40:13.849Z,85.41
2018-04-07T00:42:40.164Z,84.67
2018-04-07T00:45:06.666Z,84.51
2018-04-07T00:47:32.992Z,85.18
2018-04-07T00:49:59.331Z,85.89
2018-04-07T00:52:25.669Z,85.63
2018-04-07T00:54:52.005Z,84.50
2018-04-07T00:57:18.330Z,85.23
2018-04-07T00:59:44.669Z,85.12
2018-04-07T01:02:11.026Z,85.43
2018-04-07T01:04:40.292Z,85.21
2018-04-07T01:07:06.567Z,85.34
2018-04-07T01:09:32.885Z,84.97
2018-04-07T01:11:59.209Z,85.97
2018-04-07T01:14:25.524Z,86.46
2018-04-07T01:16:51.849Z,85.88
2018-04-07T01:19:20.121Z,88.40
2018-04-07T01:21:46.396Z,89.52
2018-04-07T01:24:12.773Z,89.81
2018-04-07T01:26:39.054Z,89.33
2018-04-07T01:29:05.325Z,88.74
2018-04-07T01:31:31.658Z,88.92
2018-04-07T01:33:57.933Z,88.03
2018-04-07T01:36:24.205Z,87.28
2018-04-07T01:38:50.518Z,87.63
2018-04-07T01:41:16.790Z,87.44
2018-04-07T01:43:43.080Z,86.82
2018-04-07T01:46:09.451Z,86.91
2018-04-07T01:48:35.725Z,86.37
2018-04-07T01:51:02.000Z,85.60
2018-04-07T01:53:28.521Z,86.00
2018-04-07T01:55:54.833Z,85.60
2018-04-07T01:58:21.126Z,85.61
2018-04-07T02:00:47.400Z,85.43
2018-04-07T02:03:13.737Z,83.99
2018-04-07T02:05:40.041Z,84.83
2018-04-07T02:08:06.442Z,85.36
2018-04-07T02:10:32.720Z,84.97
2018-04-07T02:12:59.004Z,85.12
2018-04-07T02:15:25.494Z,85.55
2018-04-07T02:17:51.825Z,85.50
2018-04-07T02:20:18.332Z,84.70
2018-04-07T02:22:44.608Z,85.12
2018-04-07T02:25:10.918Z,84.64
2018-04-07T02:27:38.887Z,84.61
2018-04-07T02:30:05.171Z,84.44
2018-04-07T02:32:31.446Z,84.09
2018-04-07T02:34:58.064Z,84.39
2018-04-07T02:37:24.438Z,84.51
2018-04-07T02:39:50.716Z,84.04
2018-04-07T02:42:17.006Z,86.02
2018-04-07T02:44:43.477Z,86.74
2018-04-07T02:47:09.762Z,87.27
2018-04-07T02:49:36.039Z,87.38
2018-04-07T02:52:02.785Z,86.65
2018-04-07T02:54:29.077Z,86.00
2018-04-07T02:56:55.414Z,86.10
2018-04-07T02:59:21.777Z,86.39
2018-04-07T03:01:48.122Z,85.18
2018-04-07T03:04:14.518Z,85.06
2018-04-07T03:06:41.052Z,84.90
2018-04-07T03:09:07.357Z,85.37
2018-04-07T03:11:33.733Z,85.84
2018-04-07T03:14:00.010Z,85.57
2018-04-07T03:16:26.288Z,85.97
2018-04-07T03:18:52.615Z,86.43
2018-04-07T03:21:18.891Z,87.59
2018-04-07T03:23:45.172Z,88.08
2018-04-07T03:26:11.662Z,87.05
2018-04-07T03:28:37.952Z,85.96
2018-04-07T03:31:04.326Z,86.15
2018-04-07T03:33:31.591Z,85.80
2018-04-07T03:35:57.866Z,85.33
2018-04-07T03:38:24.196Z,84.96
2018-04-07T03:40:52.998Z,85.79
2018-04-07T03:43:19.275Z,86.06
2018-04-07T03:45:45.602Z,85.72
2018-04-07T03:48:12.113Z,85.20
2018-04-07T03:50:38.445Z,84.99
2018-04-07T03:53:04.772Z,84.32
2018-04-07T03:55:31.043Z,84.47
2018-04-07T03:57:57.436Z,85.13
2018-04-07T04:00:23.867Z,86.81
2018-04-07T04:02:50.150Z,87.42
2018-04-07T04:05:16.469Z,86.70
2018-04-07T04:07:43.652Z,87.35
2018-04-07T04:10:09.950Z,88.28
2018-04-07T04:12:36.216Z,87.75
2018-04-07T04:15:02.567Z,86.64
2018-04-07T04:17:28.890Z,85.72
2018-04-07T04:19:56.104Z,86.64
2018-04-07T04:22:22.492Z,87.07
2018-04-07T04:24:48.768Z,86.95
2018-04-07T04:27:15.052Z,87.68
2018-04-07T04:29:41.397Z,87.37
2018-04-07T04:32:07.673Z,86.33
2018-04-07T04:34:33.964Z,85.08
2018-04-07T04:37:01.562Z,84.64
2018-04-07T04:39:27.996Z,83.83
2018-04-07T04:41:54.321Z,84.34
2018-04-07T04:44:20.610Z,83.66
2018-04-07T04:46:46.924Z,84.55
2018-04-07T04:49:13.262Z,84.84
2018-04-07T04:51:39.562Z,84.41
2018-04-07T04:54:05.881Z,84.56
2018-04-07T04:56:32.177Z,84.44
2018-04-07T04:58:58.462Z,85.65
2018-04-07T05:01:24.837Z,85.86
2018-04-07T05:03:51.119Z,86.44
2018-04-07T05:06:17.422Z,86.49
2018-04-07T05:08:46.469Z,85.00
2018-04-07T05:11:12.739Z,85.04
2018-04-07T05:13:39.005Z,85.67
2018-04-07T05:16:05.378Z,85.47
2018-04-07T05:18:31.696Z,85.18
2018-04-07T05:20:57.998Z,84.40
2018-04-07T05:23:24.808Z,84.71
2018-04-07T05:25:51.106Z,82.19
2018-04-07T05:28:17.394Z,82.42
2018-04-07T05:30:43.756Z,82.50
2018-04-07T05:33:10.025Z,82.35
2018-04-07T05:35:36.307Z,82.10
2018-04-07T05:38:02.858Z,82.61
2018-04-07T05:40:29.175Z,82.72
2018-04-07T05:42:55.461Z,82.92
2018-04-07T05:45:21.929Z,83.97
2018-04-07T05:47:48.234Z,83.41
2018-04-07T05:50:14.640Z,83.51
2018-04-07T05:52:40.928Z,83.01
2018-04-07T05:55:07.224Z,83.09
2018-04-07T05:57:33.589Z,83.13
2018-04-07T05:59:59.863Z,83.12
2018-04-07T06:02:26.146Z,83.47
2018-04-07T06:04:52.651Z,83.97
2018-04-07T06:07:18.923Z,84.96
2018-04-07T06:09:45.485Z,84.86
2018-04-07T06:12:11.819Z,82.62
2018-04-07T06:14:38.154Z,83.27
2018-04-07T06:17:04.489Z,83.82
2018-04-07T06:19:30.763Z,84.90
2018-04-07T06:21:57.044Z,84.74
2018-04-07T06:24:23.428Z,84.80
2018-04-07T06:26:49.717Z,85.44
2018-04-07T06:29:16.001Z,84.61
2018-04-07T06:31:42.456Z,84.22
2018-04-07T06:34:08.801Z,83.52
2018-04-07T06:36:35.086Z,82.36
2018-04-07T06:39:01.424Z,83.17
2018-04-07T06:41:27.803Z,83.18
2018-04-07T06:43:54.077Z,82.28
2018-04-07T06:46:20.401Z,83.53
2018-04-07T06:48:46.722Z,82.69
2018-04-07T06:51:13.005Z,83.33
2018-04-07T06:53:42.322Z,83.55
2018-04-07T06:56:08.832Z,83.33
2018-04-07T06:58:35.109Z,82.96
2018-04-07T07:01:01.484Z,83.46
2018-04-07T07:03:27.756Z,82.61
2018-04-07T07:05:54.040Z,82.11
2018-04-07T07:08:20.472Z,80.98
2018-04-07T07:10:52.902Z,79.02
2018-04-07T07:13:19.170Z,76.47
2018-04-07T07:15:45.384Z,79.67
2018-04-07T07:18:11.866Z,77.46
2018-04-07T07:20:38.261Z,78.74
2018-04-07T07:23:04.475Z,78.76
2018-04-07T07:25:30.713Z,79.14
2018-04-07T07:27:57.133Z,79.31
2018-04-07T07:30:23.331Z,79.32
2018-04-07T07:32:49.550Z,79.72
2018-04-07T07:35:15.789Z,78.74
2018-04-07T07:37:41.982Z,79.87
2018-04-07T07:40:08.185Z,79.58
2018-04-07T07:42:34.481Z,80.24
2018-04-07T07:45:00.688Z,81.27
2018-04-07T07:47:26.910Z,81.61
2018-04-07T07:49:53.342Z,83.15
2018-04-07T07:52:19.532Z,83.85
2018-04-07T07:54:45.768Z,83.93
2018-04-07T07:57:11.960Z,82.45
2018-04-07T07:59:38.161Z,80.63
2018-04-07T08:02:04.449Z,80.73
2018-04-07T08:04:30.696Z,78.48
2018-04-07T08:06:56.886Z,78.49
2018-04-07T08:09:23.636Z,79.12
2018-04-07T08:11:50.109Z,77.07
2018-04-07T08:14:16.306Z,76.67
2018-04-07T08:16:42.557Z,76.22
2018-04-07T08:19:08.767Z,75.04
2018-04-07T08:21:34.948Z,75.76
2018-04-07T08:24:01.245Z,74.43
2018-04-07T08:26:27.452Z,75.50
2018-04-07T08:28:53.842Z,74.70
2018-04-07T08:31:20.205Z,75.92
2018-04-07T08:33:46.498Z,76.46
2018-04-07T08:36:12.790Z,76.75
2018-04-07T08:38:39.326Z,76.32
2018-04-07T08:41:05.661Z,75.15
2018-04-07T08:43:32.852Z,76.76
2018-04-07T08:45:59.122Z,75.09
2018-04-07T08:48:25.439Z,75.05
2018-04-07T08:50:51.791Z,72.74
2018-04-07T08:53:18.197Z,72.13
2018-04-07T08:55:44.488Z,71.25
2018-04-07T08:58:11.073Z,71.95
2018-04-07T09:00:37.433Z,71.28
2018-04-07T09:03:03.752Z,70.69
2018-04-07T09:05:33.931Z,69.10
2018-04-07T09:08:00.291Z,69.27
2018-04-07T09:10:26.618Z,69.38
2018-04-07T09:12:53.021Z,69.16
2018-04-07T09:15:19.363Z,68.91
2018-04-07T09:17:45.656Z,68.16
2018-04-07T09:20:12.197Z,67.45
2018-04-07T09:22:38.497Z,67.25
2018-04-07T09:25:04.849Z,65.50
2018-04-07T09:27:31.147Z,64.57
2018-04-07T09:29:57.921Z,61.34
2018-04-07T09:32:24.267Z,59.07
2018-04-07T09:34:50.536Z,61.69
2018-04-07T09:37:16.912Z,61.25
2018-04-07T09:39:43.199Z,58.81
2018-04-07T09:42:09.531Z,57.01
2018-04-07T09:44:36.180Z,54.42
2018-04-07T09:47:02.503Z,49.92
2018-04-07T09:49:28.855Z,49.31
2018-04-07T09:51:55.137Z,49.11
2018-04-07T09:54:21.436Z,48.46
2018-04-07T09:56:47.813Z,48.28
2018-04-07T09:59:14.112Z,50.09
2018-04-07T10:01:41.291Z,42.29
2018-04-07T10:04:07.622Z,43.90
2018-04-07T10:06:33.914Z,40.91
2018-04-07T10:09:00.229Z,42.22
2018-04-07T10:11:27.598Z,43.65
2018-04-07T10:13:53.910Z,41.58
2018-04-07T10:16:20.206Z,41.87
2018-04-07T10:18:46.624Z,40.10
2018-04-07T10:21:12.920Z,41.80
2018-04-07T10:23:39.294Z,37.48
2018-04-07T10:26:05.651Z,39.09
2018-04-07T10:28:31.937Z,37.09
2018-04-07T10:30:58.221Z,40.48
2018-04-07T10:33:24.557Z,37.88
2018-04-07T10:35:50.875Z,35.92
2018-04-07T10:38:17.179Z,35.22
2018-04-07T10:40:43.619Z,36.99
2018-04-07T10:43:10.676Z,39.87
2018-04-07T10:45:36.956Z,35.25
2018-04-07T10:48:03.325Z,34.75
2018-04-07T10:50:29.620Z,38.10
2018-04-07T10:52:55.899Z,39.23
2018-04-07T10:55:22.228Z,40.90
2018-04-07T10:57:48.508Z,36.98
2018-04-07T11:00:14.794Z,38.33
2018-04-07T11:02:41.161Z,37.43
2018-04-07T11:05:07.482Z,37.10
2018-04-07T11:07:33.769Z,37.62
2018-04-07T11:10:00.272Z,39.54
2018-04-07T11:12:26.807Z,37.26
2018-04-07T11:14:53.202Z,36.94
2018-04-07T11:17:19.890Z,38.02
2018-04-07T11:19:46.185Z,35.80
2018-04-07T11:22:12.484Z,36.64
2018-04-07T11:24:39.021Z,36.63
2018-04-07T11:27:05.528Z,36.10
2018-04-07T11:29:32.038Z,36.60
2018-04-07T11:31:58.321Z,35.09
2018-04-07T11:34:24.689Z,37.12
2018-04-07T11:36:51.005Z,36.93
2018-04-07T11:39:17.290Z,35.91
2018-04-07T11:41:43.580Z,36.49
2018-04-07T11:44:10.108Z,34.65
2018-04-07T11:46:36.390Z,35.19
2018-04-07T11:49:02.728Z,36.11
2018-04-07T11:51:29.012Z,34.98
2018-04-07T11:53:55.359Z,34.97
2018-04-07T11:56:21.652Z,35.29
2018-04-07T11:58:48.013Z,35.99
2018-04-07T12:01:14.494Z,35.73
2018-04-07T12:03:40.780Z,36.02
2018-04-07T12:06:07.072Z,37.11
2018-04-07T12:08:33.576Z,34.57
2018-04-07T12:11:00.196Z,34.97
2018-04-07T12:13:27.687Z,37.04
2018-04-07T12:15:54.018Z,35.84
2018-04-07T12:18:20.318Z,38.63
2018-04-07T12:20:46.673Z,37.71
2018-04-07T12:23:12.946Z,37.41
2018-04-07T12:25:39.312Z,37.56
2018-04-07T12:28:05.720Z,38.17
2018-04-07T12:30:32.013Z,37.14
2018-04-07T12:32:59.310Z,34.40
2018-04-07T12:35:25.674Z,34.16
2018-04-07T12:37:52.018Z,32.39
2018-04-07T12:40:18.300Z,32.52
2018-04-07T12:42:44.622Z,32.06
2018-04-07T12:45:10.909Z,32.93
2018-04-07T12:47:37.292Z,32.81
2018-04-07T12:50:03.628Z,33.71
2018-04-07T12:52:29.909Z,32.58
2018-04-07T12:54:56.493Z,33.17
2018-04-07T12:57:23.395Z,33.43
2018-04-07T12:59:49.741Z,35.30
2018-04-07T13:02:16.052Z,32.62
2018-04-07T13:04:42.420Z,34.83
2018-04-07T13:07:08.801Z,33.58
2018-04-07T13:09:35.113Z,35.47
2018-04-07T13:12:01.382Z,33.42
2018-04-07T13:14:27.716Z,36.29
2018-04-07T13:16:54.060Z,35.59
2018-04-07T13:19:20.333Z,35.12
2018-04-07T13:21:46.660Z,34.11
2018-04-07T13:24:12.933Z,33.31
2018-04-07T13:26:39.213Z,35.07
2018-04-07T13:29:05.820Z,33.83
2018-04-07T13:31:32.115Z,33.25
2018-04-07T13:33:58.511Z,31.50
2018-04-07T13:36:24.802Z,30.66
2018-04-07T13:38:51.169Z,29.85
2018-04-07T13:41:17.457Z,31.04
2018-04-07T13:43:43.733Z,28.13
2018-04-07T13:46:13.102Z,23.71
2018-04-07T13:48:39.396Z,26.38
2018-04-07T13:51:05.723Z,25.84
2018-04-07T13:53:32.067Z,25.98
2018-04-07T13:55:58.384Z,26.19
2018-04-07T13:58:24.682Z,27.07
2018-04-07T14:00:51.126Z,26.63
2018-04-07T14:03:17.422Z,27.68
2018-04-07T14:05:43.719Z,25.48
2018-04-07T14:08:10.222Z,27.46
2018-04-07T14:10:36.541Z,28.43
2018-04-07T14:13:02.848Z,24.58
2018-04-07T14:15:29.137Z,26.18
2018-04-07T14:17:55.519Z,26.79
2018-04-07T14:20:21.803Z,26.87
2018-04-07T14:22:50.546Z,29.13
2018-04-07T14:25:16.933Z,28.92
2018-04-07T14:27:43.209Z,27.25
2018-04-07T14:30:09.600Z,27.53
2018-04-07T14:32:36.165Z,23.64
2018-04-07T14:35:02.465Z,24.07
2018-04-07T14:37:28.870Z,23.12
2018-04-07T14:39:55.158Z,25.96
2018-04-07T14:42:21.433Z,25.53
2018-04-07T14:44:47.786Z,24.81
2018-04-07T14:47:14.064Z,26.30
2018-04-07T14:49:40.465Z,28.14
2018-04-07T14:52:06.840Z,28.79
2018-04-07T14:54:33.135Z,29.38
2018-04-07T14:56:59.512Z,31.54
2018-04-07T14:59:25.806Z,29.27
2018-04-07T15:01:52.105Z,30.84
2018-04-07T15:04:21.554Z,31.48
2018-04-07T15:06:47.896Z,31.83
2018-04-07T15:09:14.229Z,32.42
2018-04-07T15:11:40.503Z,32.62
2018-04-07T15:14:06.842Z,33.84
2018-04-07T15:16:33.147Z,33.78
2018-04-07T15:19:02.769Z,33.91
2018-04-07T15:21:29.044Z,34.56
2018-04-07T15:23:55.336Z,34.58
2018-04-07T15:26:21.754Z,35.91
2018-04-07T15:28:48.068Z,35.04
2018-04-07T15:31:14.597Z,36.01
2018-04-07T15:33:41.114Z,35.53
2018-04-07T15:36:07.501Z,36.08
2018-04-07T15:38:33.907Z,35.87
2018-04-07T15:41:00.215Z,34.36
2018-04-07T15:43:26.576Z,36.33
2018-04-07T15:45:52.854Z,33.65
2018-04-07T15:48:19.374Z,35.19
2018-04-07T15:50:45.713Z,37.32
2018-04-07T15:53:12.074Z,37.83
2018-04-07T15:55:38.589Z,35.43
2018-04-07T15:58:04.943Z,39.05
2018-04-07T16:00:31.229Z,41.58
2018-04-07T16:02:57.509Z,41.69
2018-04-07T16:05:23.889Z,41.74
2018-04-07T16:07:55.883Z,42.80
2018-04-07T16:10:22.549Z,41.43
2018-04-07T16:12:48.901Z,42.90
2018-04-07T16:15:15.416Z,43.53
2018-04-07T16:17:41.716Z,43.63
2018-04-07T16:20:08.260Z,44.77
2018-04-07T16:22:34.719Z,45.30
2018-04-07T16:25:01.014Z,45.15
2018-04-07T16:27:27.324Z,47.88
2018-04-07T16:29:53.733Z,47.40
2018-04-07T16:32:20.084Z,49.61
2018-04-07T16:34:46.437Z,48.82
2018-04-07T16:37:13.417Z,47.78
2018-04-07T16:39:39.748Z,46.75
2018-04-07T16:42:06.117Z,46.70
2018-04-07T16:44:32.413Z,48.70
2018-04-07T16:46:58.755Z,49.08
2018-04-07T16:49:25.121Z,49.32
2018-04-07T16:51:51.414Z,50.38
2018-04-07T16:54:18.107Z,50.44
2018-04-07T16:56:44.450Z,50.32
2018-04-07T16:59:10.744Z,48.82
2018-04-07T17:01:37.965Z,49.60
2018-04-07T17:04:04.342Z,48.25
2018-04-07T17:06:30.631Z,49.07
2018-04-07T17:08:56.958Z,49.12
2018-04-07T17:11:23.408Z,49.84
2018-04-07T17:13:49.727Z,50.23
2018-04-07T17:16:16.016Z,51.31
2018-04-07T17:18:42.327Z,51.00
2018-04-07T17:21:08.681Z,50.32
2018-04-07T17:23:34.996Z,52.11
2018-04-07T17:26:01.362Z,51.49
2018-04-07T17:28:27.648Z,51.48
2018-04-07T17:30:53.943Z,53.36
2018-04-07T17:33:20.429Z,55.20
2018-04-07T17:35:46.823Z,54.29
2018-04-07T17:38:13.122Z,55.46
2018-04-07T17:40:39.416Z,56.87
2018-04-07T17:43:05.999Z,54.88
2018-04-07T17:45:32.280Z,56.12
2018-04-07T17:47:58.596Z,56.86
2018-04-07T17:50:25.021Z,57.73
2018-04-07T17:52:51.366Z,57.31
2018-04-07T17:55:17.736Z,55.67
2018-04-07T17:57:44.034Z,57.66
2018-04-07T18:00:10.316Z,58.35
2018-04-07T18:02:36.689Z,59.69
2018-04-07T18:05:03.031Z,59.32
2018-04-07T18:07:29.305Z,58.35
2018-04-07T18:09:55.644Z,58.31
2018-04-07T18:12:22.066Z,59.92
2018-04-07T18:14:48.352Z,59.92
2018-04-07T18:17:14.693Z,60.39
2018-04-07T18:19:41.074Z,60.50
2018-04-07T18:22:07.379Z,60.13
2018-04-07T18:24:34.560Z,60.74
2018-04-07T18:27:00.901Z,59.84
2018-04-07T18:29:27.210Z,60.36
2018-04-07T18:31:53.494Z,57.61
2018-04-07T18:34:19.881Z,56.64
2018-04-07T18:36:46.255Z,56.66
2018-04-07T18:39:12.535Z,55.50
2018-04-07T18:41:38.865Z,54.25
2018-04-07T18:44:05.294Z,54.84
2018-04-07T18:46:31.625Z,53.20
2018-04-07T18:48:57.896Z,53.18
2018-04-07T18:51:24.284Z,54.26
2018-04-07T18:53:50.648Z,55.44
2018-04-07T18:56:16.959Z,57.58
2018-04-07T18:58:43.390Z,61.51
2018-04-07T19:01:09.814Z,62.43
2018-04-07T19:03:36.098Z,61.56
2018-04-07T19:06:02.465Z,61.43
2018-04-07T19:08:28.818Z,60.61
2018-04-07T19:10:55.261Z,61.46
2018-04-07T19:13:23.416Z,62.20
2018-04-07T19:15:49.697Z,62.21
2018-04-07T19:18:16.062Z,62.90
2018-04-07T19:20:42.348Z,63.25
2018-04-07T19:23:08.627Z,63.28
2018-04-07T19:25:34.981Z,63.48
2018-04-07T19:28:01.355Z,63.09
2018-04-07T19:30:27.736Z,63.93
2018-04-07T19:32:54.126Z,64.57
2018-04-07T19:35:20.473Z,63.61
2018-04-07T19:37:46.834Z,59.79
2018-04-07T19:40:13.265Z,60.63
2018-04-07T19:42:39.544Z,61.75
2018-04-07T19:45:05.829Z,63.74
2018-04-07T19:47:33.017Z,61.53
2018-04-07T19:49:59.287Z,62.46
2018-04-07T19:52:25.568Z,64.06
2018-04-07T19:54:51.997Z,64.27
2018-04-07T19:57:18.286Z,64.39
2018-04-07T19:59:44.580Z,63.87
2018-04-07T20:02:10.939Z,64.73
2018-04-07T20:04:37.226Z,63.95
2018-04-07T20:07:03.536Z,64.83
2018-04-07T20:09:29.954Z,65.07
2018-04-07T20:11:56.448Z,65.29
2018-04-07T20:14:23.047Z,66.12
2018-04-07T20:16:49.430Z,65.71
2018-04-07T20:19:15.783Z,67.74
2018-04-07T20:21:42.072Z,68.67
2018-04-07T20:24:08.461Z,68.50
2018-04-07T20:26:34.728Z,68.59
2018-04-07T20:29:01.012Z,69.13
2018-04-07T20:31:27.347Z,68.44
2018-04-07T20:33:53.630Z,69.01
2018-04-07T20:36:20.092Z,68.75
2018-04-07T20:38:46.376Z,67.81
2018-04-07T20:41:12.652Z,69.03
2018-04-07T20:43:38.968Z,66.69
2018-04-07T20:46:05.249Z,69.00
2018-04-07T20:48:31.532Z,70.09
2018-04-07T20:50:57.850Z,70.90
2018-04-07T20:53:24.121Z,71.66
2018-04-07T20:55:50.425Z,71.55
2018-04-07T20:58:16.801Z,70.08
2018-04-07T21:00:43.088Z,70.72
2018-04-07T21:03:09.370Z,70.51
2018-04-07T21:05:35.700Z,70.31
2018-04-07T21:08:01.987Z,70.15
2018-04-07T21:10:32.270Z,70.73
2018-04-07T21:12:58.679Z,70.86
2018-04-07T21:15:25.018Z,72.85
2018-04-07T21:17:51.450Z,73.29
2018-04-07T21:20:17.727Z,72.95
2018-04-07T21:22:44.018Z,71.76
2018-04-07T21:25:13.372Z,71.64
2018-04-07T21:27:39.658Z,71.66
2018-04-07T21:30:05.963Z,71.56
2018-04-07T21:32:32.364Z,71.59
2018-04-07T21:34:58.668Z,71.64
2018-04-07T21:37:24.949Z,72.39
2018-04-07T21:39:51.404Z,73.57
2018-04-07T21:42:17.862Z,73.39
2018-04-07T21:44:44.145Z,73.13
2018-04-07T21:47:10.420Z,72.44
2018-04-07T21:49:36.772Z,72.68
2018-04-07T21:52:03.056Z,72.30
2018-04-07T21:54:29.365Z,71.36
2018-04-07T21:56:55.757Z,71.23
2018-04-07T21:59:22.042Z,71.87
2018-04-07T22:01:48.411Z,71.74
2018-04-07T22:04:14.704Z,71.63
2018-04-07T22:06:41.025Z,71.61
2018-04-07T22:09:07.414Z,71.46
2018-04-07T22:14:17.711Z,72.49
2018-04-07T22:16:44.149Z,73.59
2018-04-07T22:19:10.465Z,73.62
2018-04-07T22:21:36.939Z,73.17
2018-04-07T22:24:03.221Z,72.62
2018-04-07T22:26:29.556Z,73.01
2018-04-07T22:28:55.893Z,75.05
2018-04-07T22:31:22.220Z,76.04
2018-04-07T22:33:48.535Z,74.81
2018-04-07T22:36:14.988Z,74.98
2018-04-07T22:38:42.357Z,75.63
2018-04-07T22:41:08.630Z,75.11
2018-04-07T22:43:34.945Z,73.63
2018-04-07T22:46:03.195Z,73.76
2018-04-07T22:48:29.474Z,73.43
2018-04-07T22:50:55.816Z,72.76
2018-04-07T22:53:22.876Z,73.03
2018-04-07T22:55:49.238Z,73.24
2018-04-07T22:58:15.532Z,72.79
2018-04-07T23:00:41.919Z,72.31
2018-04-07T23:03:08.233Z,73.34
2018-04-07T23:05:34.536Z,73.41
2018-04-07T23:08:00.869Z,72.54
2018-04-07T23:10:27.189Z,73.52
2018-04-07T23:12:53.513Z,75.15
2018-04-07T23:15:19.797Z,74.87
2018-04-07T23:17:46.178Z,74.78
2018-04-07T23:20:12.461Z,75.11
2018-04-07T23:22:38.742Z,76.46
2018-04-07T23:25:05.112Z,77.50
2018-04-07T23:27:31.371Z,78.11
2018-04-07T23:29:57.645Z,77.36
2018-04-07T23:32:24.020Z,77.47
2018-04-07T23:34:50.301Z,77.29
2018-04-07T23:37:16.610Z,76.58
2018-04-07T23:39:43.005Z,75.77
2018-04-07T23:42:09.281Z,76.20
2018-04-07T23:44:35.704Z,75.81
2018-04-07T23:47:01.985Z,75.18
2018-04-07T23:49:28.270Z,75.05
2018-04-07T23:51:54.610Z,74.98
2018-04-07T23:54:20.893Z,74.91
2018-04-07T23:56:47.427Z,75.37
2018-04-07T23:59:13.734Z,75.25
